sensor_id;sensor_type;location;lat;lon;timestamp;temperature;humidity
30244;DHT22;64022;53.652;9.792;2023-02-01T00:02:00;20.40;59.50
30244;DHT22;64022;53.652;9.792;2023-02-01T00:04:26;20.40;59.50
30244;DHT22;64022;53.652;9.792;2023-02-01T00:06:51;20.40;59.50
30244;DHT22;64022;53.652;9.792;2023-02-01T00:09:17;20.40;59.50
30244;DHT22;64022;53.652;9.792;2023-02-01T00:11:42;20.40;59.40
30244;DHT22;64022;53.652;9.792;2023-02-01T00:14:08;20.50;59.50
30244;DHT22;64022;53.652;9.792;2023-02-01T00:16:33;20.40;59.40
30244;DHT22;64022;53.652;9.792;2023-02-01T00:19:00;20.50;59.50
30244;DHT22;64022;53.652;9.792;2023-02-01T00:21:25;20.40;59.40
30244;DHT22;64022;53.652;9.792;2023-02-01T00:23:51;20.50;59.40
30244;DHT22;64022;53.652;9.792;2023-02-01T00:26:17;20.50;59.40
30244;DHT22;64022;53.652;9.792;2023-02-01T00:28:43;20.50;59.40
30244;DHT22;64022;53.652;9.792;2023-02-01T00:31:09;20.50;59.40
30244;DHT22;64022;53.652;9.792;2023-02-01T00:33:34;20.50;59.40
30244;DHT22;64022;53.652;9.792;2023-02-01T00:36:01;20.50;59.40
30244;DHT22;64022;53.652;9.792;2023-02-01T00:38:27;20.50;59.40
30244;DHT22;64022;53.652;9.792;2023-02-01T00:40:53;20.50;59.40
30244;DHT22;64022;53.652;9.792;2023-02-01T00:43:19;20.50;59.40
30244;DHT22;64022;53.652;9.792;2023-02-01T00:45:47;20.50;59.30
30244;DHT22;64022;53.652;9.792;2023-02-01T00:48:13;20.60;59.40
30244;DHT22;64022;53.652;9.792;2023-02-01T00:50:42;20.60;59.30
30244;DHT22;64022;53.652;9.792;2023-02-01T00:53:08;20.60;59.30
30244;DHT22;64022;53.652;9.792;2023-02-01T00:55:33;20.60;59.20
30244;DHT22;64022;53.652;9.792;2023-02-01T00:57:59;20.60;59.20
30244;DHT22;64022;53.652;9.792;2023-02-01T01:00:25;20.60;59.10
30244;DHT22;64022;53.652;9.792;2023-02-01T01:02:50;20.60;59.60
30244;DHT22;64022;53.652;9.792;2023-02-01T01:05:15;20.60;59.10
30244;DHT22;64022;53.652;9.792;2023-02-01T01:07:41;20.60;59.00
30244;DHT22;64022;53.652;9.792;2023-02-01T01:10:07;20.60;59.00
30244;DHT22;64022;53.652;9.792;2023-02-01T01:12:32;20.50;58.90
30244;DHT22;64022;53.652;9.792;2023-02-01T01:14:57;20.60;58.90
30244;DHT22;64022;53.652;9.792;2023-02-01T01:17:23;20.60;58.90
30244;DHT22;64022;53.652;9.792;2023-02-01T01:19:48;20.50;58.80
30244;DHT22;64022;53.652;9.792;2023-02-01T01:22:14;20.50;59.30
30244;DHT22;64022;53.652;9.792;2023-02-01T01:24:39;20.50;58.70
30244;DHT22;64022;53.652;9.792;2023-02-01T01:27:05;20.50;58.70
30244;DHT22;64022;53.652;9.792;2023-02-01T01:29:30;20.50;58.70
30244;DHT22;64022;53.652;9.792;2023-02-01T01:31:56;20.50;58.60
30244;DHT22;64022;53.652;9.792;2023-02-01T01:34:21;20.50;58.70
30244;DHT22;64022;53.652;9.792;2023-02-01T01:36:46;20.50;58.60
30244;DHT22;64022;53.652;9.792;2023-02-01T01:39:12;20.50;58.60
30244;DHT22;64022;53.652;9.792;2023-02-01T01:41:37;20.50;58.60
30244;DHT22;64022;53.652;9.792;2023-02-01T01:44:04;20.50;58.60
30244;DHT22;64022;53.652;9.792;2023-02-01T01:46:31;20.50;59.20
30244;DHT22;64022;53.652;9.792;2023-02-01T01:49:01;20.50;58.70
30244;DHT22;64022;53.652;9.792;2023-02-01T01:51:29;20.50;58.60
30244;DHT22;64022;53.652;9.792;2023-02-01T01:53:59;20.50;58.60
30244;DHT22;64022;53.652;9.792;2023-02-01T01:56:26;20.50;58.60
30244;DHT22;64022;53.652;9.792;2023-02-01T01:58:53;20.50;58.70
30244;DHT22;64022;53.652;9.792;2023-02-01T02:01:18;20.50;58.60
30244;DHT22;64022;53.652;9.792;2023-02-01T02:03:44;20.40;58.50
30244;DHT22;64022;53.652;9.792;2023-02-01T02:07:11;20.40;58.50
30244;DHT22;64022;53.652;9.792;2023-02-01T02:09:06;20.40;58.50
30244;DHT22;64022;53.652;9.792;2023-02-01T02:11:31;20.40;58.50
30244;DHT22;64022;53.652;9.792;2023-02-01T02:13:57;20.40;58.50
30244;DHT22;64022;53.652;9.792;2023-02-01T02:16:40;20.40;58.50
30244;DHT22;64022;53.652;9.792;2023-02-01T02:22:00;20.40;58.50
30244;DHT22;64022;53.652;9.792;2023-02-01T02:32:45;20.40;58.50
30244;DHT22;64022;53.652;9.792;2023-02-01T02:38:12;20.40;58.50
30244;DHT22;64022;53.652;9.792;2023-02-01T02:41:00;20.40;58.50
30244;DHT22;64022;53.652;9.792;2023-02-01T02:43:31;20.40;58.50
30244;DHT22;64022;53.652;9.792;2023-02-01T02:46:22;20.50;58.60
30244;DHT22;64022;53.652;9.792;2023-02-01T02:52:02;20.50;58.50
30244;DHT22;64022;53.652;9.792;2023-02-01T02:54:48;20.50;58.50
30244;DHT22;64022;53.652;9.792;2023-02-01T02:57:18;20.50;58.50
30244;DHT22;64022;53.652;9.792;2023-02-01T03:00:04;20.50;58.40
30244;DHT22;64022;53.652;9.792;2023-02-01T03:02:48;20.50;58.40
30244;DHT22;64022;53.652;9.792;2023-02-01T03:05:33;20.50;58.40
30244;DHT22;64022;53.652;9.792;2023-02-01T03:08:09;20.60;58.40
30244;DHT22;64022;53.652;9.792;2023-02-01T03:10:41;20.50;58.30
30244;DHT22;64022;53.652;9.792;2023-02-01T03:18:36;20.50;58.30
30244;DHT22;64022;53.652;9.792;2023-02-01T03:21:06;20.60;58.30
30244;DHT22;64022;53.652;9.792;2023-02-01T03:23:33;20.60;58.30
30244;DHT22;64022;53.652;9.792;2023-02-01T03:26:00;20.60;58.20
30244;DHT22;64022;53.652;9.792;2023-02-01T03:28:27;20.60;58.20
30244;DHT22;64022;53.652;9.792;2023-02-01T03:30:53;20.50;58.20
30244;DHT22;64022;53.652;9.792;2023-02-01T03:33:20;20.50;58.10
30244;DHT22;64022;53.652;9.792;2023-02-01T03:36:01;20.60;58.20
30244;DHT22;64022;53.652;9.792;2023-02-01T03:38:30;20.60;58.20
30244;DHT22;64022;53.652;9.792;2023-02-01T03:43:22;20.50;58.10
30244;DHT22;64022;53.652;9.792;2023-02-01T03:45:50;20.50;58.00
30244;DHT22;64022;53.652;9.792;2023-02-01T03:48:17;20.50;58.00
30244;DHT22;64022;53.652;9.792;2023-02-01T03:50:44;20.50;58.00
30244;DHT22;64022;53.652;9.792;2023-02-01T03:53:13;20.50;58.00
30244;DHT22;64022;53.652;9.792;2023-02-01T03:55:40;20.50;58.00
30244;DHT22;64022;53.652;9.792;2023-02-01T03:58:07;20.50;58.00
30244;DHT22;64022;53.652;9.792;2023-02-01T04:00:34;20.50;58.00
30244;DHT22;64022;53.652;9.792;2023-02-01T04:03:00;20.50;58.00
30244;DHT22;64022;53.652;9.792;2023-02-01T04:05:26;20.50;58.00
30244;DHT22;64022;53.652;9.792;2023-02-01T04:07:51;20.50;58.00
30244;DHT22;64022;53.652;9.792;2023-02-01T04:10:17;20.50;58.00
30244;DHT22;64022;53.652;9.792;2023-02-01T04:12:42;20.50;58.00
30244;DHT22;64022;53.652;9.792;2023-02-01T04:15:08;20.50;58.00
30244;DHT22;64022;53.652;9.792;2023-02-01T04:17:34;20.40;58.00
30244;DHT22;64022;53.652;9.792;2023-02-01T04:19:59;20.50;58.00
30244;DHT22;64022;53.652;9.792;2023-02-01T04:22:25;20.50;58.00
30244;DHT22;64022;53.652;9.792;2023-02-01T04:24:50;20.50;58.00
30244;DHT22;64022;53.652;9.792;2023-02-01T04:27:16;20.50;58.00
30244;DHT22;64022;53.652;9.792;2023-02-01T04:29:41;20.50;58.00
30244;DHT22;64022;53.652;9.792;2023-02-01T04:32:08;20.40;57.90
30244;DHT22;64022;53.652;9.792;2023-02-01T04:34:33;20.50;58.00
30244;DHT22;64022;53.652;9.792;2023-02-01T04:36:59;20.40;57.90
30244;DHT22;64022;53.652;9.792;2023-02-01T04:39:24;20.50;58.00
30244;DHT22;64022;53.652;9.792;2023-02-01T04:41:50;20.50;58.00
30244;DHT22;64022;53.652;9.792;2023-02-01T04:44:16;20.40;57.90
30244;DHT22;64022;53.652;9.792;2023-02-01T04:46:42;20.40;58.00
30244;DHT22;64022;53.652;9.792;2023-02-01T04:49:10;20.50;58.00
30244;DHT22;64022;53.652;9.792;2023-02-01T04:51:36;20.40;58.00
30244;DHT22;64022;53.652;9.792;2023-02-01T04:54:02;20.40;58.00
30244;DHT22;64022;53.652;9.792;2023-02-01T04:56:28;20.40;58.10
30244;DHT22;64022;53.652;9.792;2023-02-01T04:58:53;20.50;58.10
30244;DHT22;64022;53.652;9.792;2023-02-01T05:01:19;20.50;58.10
30244;DHT22;64022;53.652;9.792;2023-02-01T05:03:44;20.50;58.10
30244;DHT22;64022;53.652;9.792;2023-02-01T05:06:10;20.50;58.20
30244;DHT22;64022;53.652;9.792;2023-02-01T05:08:35;20.50;58.20
30244;DHT22;64022;53.652;9.792;2023-02-01T05:11:01;20.50;58.20
30244;DHT22;64022;53.652;9.792;2023-02-01T05:13:29;20.50;58.20
30244;DHT22;64022;53.652;9.792;2023-02-01T05:16:13;20.50;58.20
30244;DHT22;64022;53.652;9.792;2023-02-01T05:18:39;20.50;58.20
30244;DHT22;64022;53.652;9.792;2023-02-01T05:21:05;20.50;58.20
30244;DHT22;64022;53.652;9.792;2023-02-01T05:23:30;20.50;58.20
30244;DHT22;64022;53.652;9.792;2023-02-01T05:26:00;20.50;58.20
30244;DHT22;64022;53.652;9.792;2023-02-01T05:28:26;20.50;58.20
30244;DHT22;64022;53.652;9.792;2023-02-01T05:30:52;20.60;58.20
30244;DHT22;64022;53.652;9.792;2023-02-01T05:33:17;20.50;58.10
30244;DHT22;64022;53.652;9.792;2023-02-01T05:35:43;20.60;58.20
30244;DHT22;64022;53.652;9.792;2023-02-01T05:38:08;20.50;58.10
30244;DHT22;64022;53.652;9.792;2023-02-01T05:40:33;20.60;58.20
30244;DHT22;64022;53.652;9.792;2023-02-01T05:42:59;20.50;58.10
30244;DHT22;64022;53.652;9.792;2023-02-01T05:45:24;20.60;58.10
30244;DHT22;64022;53.652;9.792;2023-02-01T05:47:50;20.50;58.10
30244;DHT22;64022;53.652;9.792;2023-02-01T05:50:16;20.50;58.10
30244;DHT22;64022;53.652;9.792;2023-02-01T05:52:41;20.50;58.10
30244;DHT22;64022;53.652;9.792;2023-02-01T05:55:07;20.50;58.60
30244;DHT22;64022;53.652;9.792;2023-02-01T05:57:32;20.50;58.10
30244;DHT22;64022;53.652;9.792;2023-02-01T05:59:58;20.50;58.10
30244;DHT22;64022;53.652;9.792;2023-02-01T06:02:23;20.50;58.10
30244;DHT22;64022;53.652;9.792;2023-02-01T06:04:49;20.50;58.10
30244;DHT22;64022;53.652;9.792;2023-02-01T06:07:15;20.50;58.10
30244;DHT22;64022;53.652;9.792;2023-02-01T06:09:40;20.50;58.10
30244;DHT22;64022;53.652;9.792;2023-02-01T06:12:06;20.50;58.10
30244;DHT22;64022;53.652;9.792;2023-02-01T06:14:31;20.50;58.00
30244;DHT22;64022;53.652;9.792;2023-02-01T06:16:57;20.50;58.00
30244;DHT22;64022;53.652;9.792;2023-02-01T06:19:22;20.50;58.00
30244;DHT22;64022;53.652;9.792;2023-02-01T06:21:48;20.50;58.00
30244;DHT22;64022;53.652;9.792;2023-02-01T06:24:14;20.50;58.00
30244;DHT22;64022;53.652;9.792;2023-02-01T06:26:39;20.50;58.60
30244;DHT22;64022;53.652;9.792;2023-02-01T06:29:06;20.50;58.00
30244;DHT22;64022;53.652;9.792;2023-02-01T06:31:32;20.50;58.00
30244;DHT22;64022;53.652;9.792;2023-02-01T06:33:57;20.50;58.00
30244;DHT22;64022;53.652;9.792;2023-02-01T06:36:23;20.50;58.00
30244;DHT22;64022;53.652;9.792;2023-02-01T06:38:48;20.40;58.00
30244;DHT22;64022;53.652;9.792;2023-02-01T06:41:14;20.50;58.00
30244;DHT22;64022;53.652;9.792;2023-02-01T06:43:39;20.40;58.00
30244;DHT22;64022;53.652;9.792;2023-02-01T06:46:06;20.50;58.00
30244;DHT22;64022;53.652;9.792;2023-02-01T06:48:32;20.40;58.00
30244;DHT22;64022;53.652;9.792;2023-02-01T06:50:57;20.40;58.00
30244;DHT22;64022;53.652;9.792;2023-02-01T06:53:23;20.50;58.00
30244;DHT22;64022;53.652;9.792;2023-02-01T06:55:52;20.40;58.00
30244;DHT22;64022;53.652;9.792;2023-02-01T06:58:18;20.40;58.00
30244;DHT22;64022;53.652;9.792;2023-02-01T07:00:43;20.40;58.00
30244;DHT22;64022;53.652;9.792;2023-02-01T07:03:09;20.50;58.10
30244;DHT22;64022;53.652;9.792;2023-02-01T07:05:34;20.40;58.10
30244;DHT22;64022;53.652;9.792;2023-02-01T07:07:59;20.40;58.00
30244;DHT22;64022;53.652;9.792;2023-02-01T07:10:25;20.50;58.10
30244;DHT22;64022;53.652;9.792;2023-02-01T07:12:50;20.50;58.10
30244;DHT22;64022;53.652;9.792;2023-02-01T07:15:16;20.50;58.10
30244;DHT22;64022;53.652;9.792;2023-02-01T07:17:41;20.50;58.10
30244;DHT22;64022;53.652;9.792;2023-02-01T07:20:07;20.50;58.10
30244;DHT22;64022;53.652;9.792;2023-02-01T07:22:33;20.50;58.10
30244;DHT22;64022;53.652;9.792;2023-02-01T07:24:58;20.50;58.10
30244;DHT22;64022;53.652;9.792;2023-02-01T07:27:24;20.50;58.10
30244;DHT22;64022;53.652;9.792;2023-02-01T07:29:50;20.50;58.10
30244;DHT22;64022;53.652;9.792;2023-02-01T07:32:16;20.50;58.10
30244;DHT22;64022;53.652;9.792;2023-02-01T07:34:43;20.60;58.10
30244;DHT22;64022;53.652;9.792;2023-02-01T07:37:09;20.60;58.10
30244;DHT22;64022;53.652;9.792;2023-02-01T07:39:34;20.60;58.10
30244;DHT22;64022;53.652;9.792;2023-02-01T07:42:00;20.60;58.00
30244;DHT22;64022;53.652;9.792;2023-02-01T07:44:25;20.60;58.00
30244;DHT22;64022;53.652;9.792;2023-02-01T07:46:50;20.60;58.00
30244;DHT22;64022;53.652;9.792;2023-02-01T07:49:16;20.60;57.90
30244;DHT22;64022;53.652;9.792;2023-02-01T07:51:42;20.60;57.90
30244;DHT22;64022;53.652;9.792;2023-02-01T07:54:08;20.60;57.90
30244;DHT22;64022;53.652;9.792;2023-02-01T07:56:34;20.60;57.90
30244;DHT22;64022;53.652;9.792;2023-02-01T07:58:59;20.60;57.90
30244;DHT22;64022;53.652;9.792;2023-02-01T08:01:26;20.60;57.80
30244;DHT22;64022;53.652;9.792;2023-02-01T08:03:53;20.60;57.80
30244;DHT22;64022;53.652;9.792;2023-02-01T08:06:19;20.60;57.80
30244;DHT22;64022;53.652;9.792;2023-02-01T08:08:45;20.50;57.70
30244;DHT22;64022;53.652;9.792;2023-02-01T08:11:12;20.50;57.70
30244;DHT22;64022;53.652;9.792;2023-02-01T08:13:38;20.50;57.80
30244;DHT22;64022;53.652;9.792;2023-02-01T08:16:04;20.50;57.80
30244;DHT22;64022;53.652;9.792;2023-02-01T08:18:30;20.50;57.80
30244;DHT22;64022;53.652;9.792;2023-02-01T08:20:56;20.50;57.80
30244;DHT22;64022;53.652;9.792;2023-02-01T08:23:22;20.50;57.80
30244;DHT22;64022;53.652;9.792;2023-02-01T08:25:48;20.50;57.80
30244;DHT22;64022;53.652;9.792;2023-02-01T08:28:13;20.50;57.80
30244;DHT22;64022;53.652;9.792;2023-02-01T08:30:39;20.50;57.80
30244;DHT22;64022;53.652;9.792;2023-02-01T08:33:05;20.50;57.80
30244;DHT22;64022;53.652;9.792;2023-02-01T08:35:34;20.50;57.80
30244;DHT22;64022;53.652;9.792;2023-02-01T08:38:00;20.50;57.80
30244;DHT22;64022;53.652;9.792;2023-02-01T08:40:25;20.50;57.90
30244;DHT22;64022;53.652;9.792;2023-02-01T08:42:51;20.50;57.80
30244;DHT22;64022;53.652;9.792;2023-02-01T08:45:20;20.60;57.90
30244;DHT22;64022;53.652;9.792;2023-02-01T08:47:46;20.50;57.80
30244;DHT22;64022;53.652;9.792;2023-02-01T08:50:13;20.50;57.80
30244;DHT22;64022;53.652;9.792;2023-02-01T08:52:38;20.50;57.80
30244;DHT22;64022;53.652;9.792;2023-02-01T08:55:04;20.50;57.80
30244;DHT22;64022;53.652;9.792;2023-02-01T08:57:30;20.50;57.90
30244;DHT22;64022;53.652;9.792;2023-02-01T08:59:56;20.50;57.90
30244;DHT22;64022;53.652;9.792;2023-02-01T09:02:21;20.50;57.90
30244;DHT22;64022;53.652;9.792;2023-02-01T09:04:47;20.50;57.80
30244;DHT22;64022;53.652;9.792;2023-02-01T09:07:12;20.50;57.90
30244;DHT22;64022;53.652;9.792;2023-02-01T09:09:42;20.50;57.90
30244;DHT22;64022;53.652;9.792;2023-02-01T09:12:08;20.50;57.90
30244;DHT22;64022;53.652;9.792;2023-02-01T09:14:33;20.50;57.90
30244;DHT22;64022;53.652;9.792;2023-02-01T09:16:59;20.50;58.00
30244;DHT22;64022;53.652;9.792;2023-02-01T09:19:24;20.50;58.00
30244;DHT22;64022;53.652;9.792;2023-02-01T09:21:49;20.50;58.00
30244;DHT22;64022;53.652;9.792;2023-02-01T09:24:15;20.50;58.00
30244;DHT22;64022;53.652;9.792;2023-02-01T09:26:40;20.50;58.00
30244;DHT22;64022;53.652;9.792;2023-02-01T09:29:06;20.50;58.00
30244;DHT22;64022;53.652;9.792;2023-02-01T09:31:38;20.50;58.00
30244;DHT22;64022;53.652;9.792;2023-02-01T09:34:04;20.50;58.00
30244;DHT22;64022;53.652;9.792;2023-02-01T09:36:30;20.50;58.00
30244;DHT22;64022;53.652;9.792;2023-02-01T09:38:55;20.50;58.00
30244;DHT22;64022;53.652;9.792;2023-02-01T09:41:32;20.50;58.00
30244;DHT22;64022;53.652;9.792;2023-02-01T09:46:47;20.50;58.00
30244;DHT22;64022;53.652;9.792;2023-02-01T09:49:14;20.50;57.90
30244;DHT22;64022;53.652;9.792;2023-02-01T09:51:44;20.50;58.00
30244;DHT22;64022;53.652;9.792;2023-02-01T09:54:15;20.50;57.90
30244;DHT22;64022;53.652;9.792;2023-02-01T09:56:42;20.50;57.90
30244;DHT22;64022;53.652;9.792;2023-02-01T10:01:53;20.50;57.90
30244;DHT22;64022;53.652;9.792;2023-02-01T10:04:18;20.50;57.90
30244;DHT22;64022;53.652;9.792;2023-02-01T10:09:19;20.50;57.90
30244;DHT22;64022;53.652;9.792;2023-02-01T10:14:38;20.50;57.90
30244;DHT22;64022;53.652;9.792;2023-02-01T10:19:39;20.50;57.90
30244;DHT22;64022;53.652;9.792;2023-02-01T10:22:11;20.60;58.00
30244;DHT22;64022;53.652;9.792;2023-02-01T10:24:49;20.60;58.00
30244;DHT22;64022;53.652;9.792;2023-02-01T10:27:27;20.60;58.00
30244;DHT22;64022;53.652;9.792;2023-02-01T10:29:59;20.60;57.90
30244;DHT22;64022;53.652;9.792;2023-02-01T10:32:32;20.60;57.90
30244;DHT22;64022;53.652;9.792;2023-02-01T10:35:00;20.60;57.90
30244;DHT22;64022;53.652;9.792;2023-02-01T10:37:28;20.60;57.80
30244;DHT22;64022;53.652;9.792;2023-02-01T10:39:55;20.50;57.80
30244;DHT22;64022;53.652;9.792;2023-02-01T10:42:21;20.60;57.80
30244;DHT22;64022;53.652;9.792;2023-02-01T10:44:48;20.60;57.80
30244;DHT22;64022;53.652;9.792;2023-02-01T10:47:14;20.60;57.80
30244;DHT22;64022;53.652;9.792;2023-02-01T10:49:46;20.60;57.80
30244;DHT22;64022;53.652;9.792;2023-02-01T10:52:18;20.60;57.80
30244;DHT22;64022;53.652;9.792;2023-02-01T10:54:44;20.60;57.80
30244;DHT22;64022;53.652;9.792;2023-02-01T10:57:21;20.60;57.80
30244;DHT22;64022;53.652;9.792;2023-02-01T10:59:47;20.60;57.80
30244;DHT22;64022;53.652;9.792;2023-02-01T11:02:26;20.60;57.80
30244;DHT22;64022;53.652;9.792;2023-02-01T11:05:21;20.60;57.80
30244;DHT22;64022;53.652;9.792;2023-02-01T11:07:48;20.60;57.80
30244;DHT22;64022;53.652;9.792;2023-02-01T11:12:58;20.60;57.80
30244;DHT22;64022;53.652;9.792;2023-02-01T11:15:26;20.60;57.80
30244;DHT22;64022;53.652;9.792;2023-02-01T11:17:52;20.60;57.80
30244;DHT22;64022;53.652;9.792;2023-02-01T11:20:21;20.60;57.80
30244;DHT22;64022;53.652;9.792;2023-02-01T11:22:54;20.60;57.80
30244;DHT22;64022;53.652;9.792;2023-02-01T11:25:21;20.60;57.80
30244;DHT22;64022;53.652;9.792;2023-02-01T11:27:50;20.60;57.80
30244;DHT22;64022;53.652;9.792;2023-02-01T11:30:17;20.60;57.80
30244;DHT22;64022;53.652;9.792;2023-02-01T11:32:45;20.60;57.80
30244;DHT22;64022;53.652;9.792;2023-02-01T11:35:12;20.60;57.80
30244;DHT22;64022;53.652;9.792;2023-02-01T11:37:41;20.60;57.80
30244;DHT22;64022;53.652;9.792;2023-02-01T11:45:24;20.60;57.80
30244;DHT22;64022;53.652;9.792;2023-02-01T11:47:53;20.60;57.80
30244;DHT22;64022;53.652;9.792;2023-02-01T11:50:22;20.60;57.80
30244;DHT22;64022;53.652;9.792;2023-02-01T11:57:54;20.50;57.70
30244;DHT22;64022;53.652;9.792;2023-02-01T12:05:24;20.50;57.70
30244;DHT22;64022;53.652;9.792;2023-02-01T12:07:57;20.50;57.70
30244;DHT22;64022;53.652;9.792;2023-02-01T12:10:31;20.50;57.70
30244;DHT22;64022;53.652;9.792;2023-02-01T12:25:57;20.50;57.70
30244;DHT22;64022;53.652;9.792;2023-02-01T12:28:48;20.50;57.70
30244;DHT22;64022;53.652;9.792;2023-02-01T12:36:32;20.50;57.70
30244;DHT22;64022;53.652;9.792;2023-02-01T12:39:12;20.50;57.70
30244;DHT22;64022;53.652;9.792;2023-02-01T12:41:42;20.50;57.70
30244;DHT22;64022;53.652;9.792;2023-02-01T12:44:12;20.50;57.70
30244;DHT22;64022;53.652;9.792;2023-02-01T12:46:58;20.50;57.70
30244;DHT22;64022;53.652;9.792;2023-02-01T12:49:31;20.50;57.70
30244;DHT22;64022;53.652;9.792;2023-02-01T12:52:00;20.50;57.80
30244;DHT22;64022;53.652;9.792;2023-02-01T12:54:31;20.50;57.70
30244;DHT22;64022;53.652;9.792;2023-02-01T12:57:00;20.60;57.80
30244;DHT22;64022;53.652;9.792;2023-02-01T12:59:30;20.60;57.80
30244;DHT22;64022;53.652;9.792;2023-02-01T13:07:21;20.60;57.70
30244;DHT22;64022;53.652;9.792;2023-02-01T13:09:53;20.60;57.70
30244;DHT22;64022;53.652;9.792;2023-02-01T13:12:26;20.60;57.70
30244;DHT22;64022;53.652;9.792;2023-02-01T13:14:58;20.60;57.60
30244;DHT22;64022;53.652;9.792;2023-02-01T13:17:26;20.60;57.60
30244;DHT22;64022;53.652;9.792;2023-02-01T13:22:35;20.60;58.00
30244;DHT22;64022;53.652;9.792;2023-02-01T13:25:03;20.60;57.50
30244;DHT22;64022;53.652;9.792;2023-02-01T13:27:29;20.60;57.50
30244;DHT22;64022;53.652;9.792;2023-02-01T13:32:25;20.60;57.50
30244;DHT22;64022;53.652;9.792;2023-02-01T13:34:58;20.60;57.50
30244;DHT22;64022;53.652;9.792;2023-02-01T13:37:48;20.60;57.50
30244;DHT22;64022;53.652;9.792;2023-02-01T13:40:26;20.60;57.40
30244;DHT22;64022;53.652;9.792;2023-02-01T13:42:57;20.60;57.40
30244;DHT22;64022;53.652;9.792;2023-02-01T13:45:24;20.60;57.40
30244;DHT22;64022;53.652;9.792;2023-02-01T13:47:51;20.60;57.40
30244;DHT22;64022;53.652;9.792;2023-02-01T13:50:25;20.60;57.40
30244;DHT22;64022;53.652;9.792;2023-02-01T13:53:02;20.60;57.40
30244;DHT22;64022;53.652;9.792;2023-02-01T13:55:31;20.60;57.30
30244;DHT22;64022;53.652;9.792;2023-02-01T13:58:02;20.60;57.30
30244;DHT22;64022;53.652;9.792;2023-02-01T14:00:32;20.60;57.30
30244;DHT22;64022;53.652;9.792;2023-02-01T14:08:14;20.60;57.30
30244;DHT22;64022;53.652;9.792;2023-02-01T14:13:37;20.60;57.30
30244;DHT22;64022;53.652;9.792;2023-02-01T14:23:57;20.60;57.10
30244;DHT22;64022;53.652;9.792;2023-02-01T14:26:27;20.60;57.10
30244;DHT22;64022;53.652;9.792;2023-02-01T14:31:35;20.60;57.10
30244;DHT22;64022;53.652;9.792;2023-02-01T14:34:13;20.60;57.10
30244;DHT22;64022;53.652;9.792;2023-02-01T14:37:02;20.60;57.10
30244;DHT22;64022;53.652;9.792;2023-02-01T14:39:36;20.60;57.10
30244;DHT22;64022;53.652;9.792;2023-02-01T14:44:47;20.60;57.00
30244;DHT22;64022;53.652;9.792;2023-02-01T14:49:55;20.50;56.90
30244;DHT22;64022;53.652;9.792;2023-02-01T14:52:22;20.60;57.00
30244;DHT22;64022;53.652;9.792;2023-02-01T14:54:51;20.50;56.90
30244;DHT22;64022;53.652;9.792;2023-02-01T14:57:18;20.50;56.90
30244;DHT22;64022;53.652;9.792;2023-02-01T14:59:45;20.50;56.90
30244;DHT22;64022;53.652;9.792;2023-02-01T15:02:18;20.50;56.80
30244;DHT22;64022;53.652;9.792;2023-02-01T15:04:45;20.50;56.80
30244;DHT22;64022;53.652;9.792;2023-02-01T15:07:11;20.50;56.80
30244;DHT22;64022;53.652;9.792;2023-02-01T15:09:41;20.50;56.80
30244;DHT22;64022;53.652;9.792;2023-02-01T15:14:37;20.50;56.80
30244;DHT22;64022;53.652;9.792;2023-02-01T15:17:15;20.50;56.80
30244;DHT22;64022;53.652;9.792;2023-02-01T15:19:43;20.50;56.80
30244;DHT22;64022;53.652;9.792;2023-02-01T15:22:18;20.50;56.80
30244;DHT22;64022;53.652;9.792;2023-02-01T15:24:43;20.50;56.80
30244;DHT22;64022;53.652;9.792;2023-02-01T15:27:09;20.50;56.90
30244;DHT22;64022;53.652;9.792;2023-02-01T15:29:35;20.50;56.90
30244;DHT22;64022;53.652;9.792;2023-02-01T15:32:00;20.50;56.90
30244;DHT22;64022;53.652;9.792;2023-02-01T15:34:44;20.50;56.90
30244;DHT22;64022;53.652;9.792;2023-02-01T15:37:13;20.50;56.90
30244;DHT22;64022;53.652;9.792;2023-02-01T15:40:02;20.50;56.90
30244;DHT22;64022;53.652;9.792;2023-02-01T15:42:26;20.60;57.00
30244;DHT22;64022;53.652;9.792;2023-02-01T15:44:52;20.60;56.90
30244;DHT22;64022;53.652;9.792;2023-02-01T15:47:19;20.60;56.90
30244;DHT22;64022;53.652;9.792;2023-02-01T15:49:50;20.60;56.90
30244;DHT22;64022;53.652;9.792;2023-02-01T15:52:36;20.60;56.90
30244;DHT22;64022;53.652;9.792;2023-02-01T15:55:17;20.60;56.90
30244;DHT22;64022;53.652;9.792;2023-02-01T15:57:43;20.60;56.90
30244;DHT22;64022;53.652;9.792;2023-02-01T16:00:25;20.60;57.00
30244;DHT22;64022;53.652;9.792;2023-02-01T16:02:55;20.70;57.00
30244;DHT22;64022;53.652;9.792;2023-02-01T16:05:41;20.60;56.90
30244;DHT22;64022;53.652;9.792;2023-02-01T16:10:40;20.70;57.00
30244;DHT22;64022;53.652;9.792;2023-02-01T16:13:06;20.70;57.10
30244;DHT22;64022;53.652;9.792;2023-02-01T16:15:32;20.70;57.10
30244;DHT22;64022;53.652;9.792;2023-02-01T16:17:57;20.70;57.10
30244;DHT22;64022;53.652;9.792;2023-02-01T16:20:23;20.70;57.10
30244;DHT22;64022;53.652;9.792;2023-02-01T16:22:48;20.70;57.20
30244;DHT22;64022;53.652;9.792;2023-02-01T16:25:15;20.70;57.20
30244;DHT22;64022;53.652;9.792;2023-02-01T16:27:40;20.70;57.30
30244;DHT22;64022;53.652;9.792;2023-02-01T16:30:06;20.80;57.40
30244;DHT22;64022;53.652;9.792;2023-02-01T16:32:35;20.80;57.50
30244;DHT22;64022;53.652;9.792;2023-02-01T16:35:04;20.80;57.60
30244;DHT22;64022;53.652;9.792;2023-02-01T16:37:30;20.80;57.60
30244;DHT22;64022;53.652;9.792;2023-02-01T16:39:57;20.80;57.80
30244;DHT22;64022;53.652;9.792;2023-02-01T16:42:22;20.80;57.80
30244;DHT22;64022;53.652;9.792;2023-02-01T16:44:48;20.90;58.00
30244;DHT22;64022;53.652;9.792;2023-02-01T16:47:18;20.80;58.00
30244;DHT22;64022;53.652;9.792;2023-02-01T16:49:44;20.90;58.10
30244;DHT22;64022;53.652;9.792;2023-02-01T16:52:14;20.90;58.20
30244;DHT22;64022;53.652;9.792;2023-02-01T16:54:40;20.90;58.30
30244;DHT22;64022;53.652;9.792;2023-02-01T16:57:10;20.90;58.40
30244;DHT22;64022;53.652;9.792;2023-02-01T16:59:35;20.90;58.40
30244;DHT22;64022;53.652;9.792;2023-02-01T17:02:01;20.90;58.50
30244;DHT22;64022;53.652;9.792;2023-02-01T17:04:26;20.90;58.60
30244;DHT22;64022;53.652;9.792;2023-02-01T17:06:52;20.90;58.70
30244;DHT22;64022;53.652;9.792;2023-02-01T17:09:17;20.90;58.80
30244;DHT22;64022;53.652;9.792;2023-02-01T17:11:43;20.90;58.90
30244;DHT22;64022;53.652;9.792;2023-02-01T17:14:18;20.90;58.90
30244;DHT22;64022;53.652;9.792;2023-02-01T17:16:45;20.90;59.00
30244;DHT22;64022;53.652;9.792;2023-02-01T17:19:15;20.90;59.00
30244;DHT22;64022;53.652;9.792;2023-02-01T17:21:43;20.90;59.10
30244;DHT22;64022;53.652;9.792;2023-02-01T17:24:19;20.90;59.20
30244;DHT22;64022;53.652;9.792;2023-02-01T17:26:45;20.90;59.20
30244;DHT22;64022;53.652;9.792;2023-02-01T17:29:11;20.80;59.20
30244;DHT22;64022;53.652;9.792;2023-02-01T17:31:37;20.90;59.40